sensor_id;sensor_type;location;lat;lon;timestamp;pressure;altitude;pressure_sealevel;temperature;humidity
46007;BME280;31738;50.188;8.524;2022-11-18T00:02:18;96954.47;;;10.52;100.00
46007;BME280;31738;50.188;8.524;2022-11-18T00:04:53;96957.16;;;10.52;100.00
46007;BME280;31738;50.188;8.524;2022-11-18T00:07:34;96949.91;;;10.53;100.00
46007;BME280;31738;50.188;8.524;2022-11-18T00:10:19;96942.19;;;10.51;100.00
46007;BME280;31738;50.188;8.524;2022-11-18T00:12:50;96947.72;;;10.55;100.00
46007;BME280;31738;50.188;8.524;2022-11-18T00:15:39;96945.31;;;10.53;100.00
46007;BME280;31738;50.188;8.524;2022-11-18T00:18:11;96945.03;;;10.55;100.00
46007;BME280;31738;50.188;8.524;2022-11-18T00:20:53;96944.72;;;10.56;100.00
46007;BME280;31738;50.188;8.524;2022-11-18T00:23:18;96938.25;;;10.57;100.00
46007;BME280;31738;50.188;8.524;2022-11-18T00:26:13;96937.44;;;10.57;100.00
46007;BME280;31738;50.188;8.524;2022-11-18T00:28:41;96939.81;;;10.58;100.00
46007;BME280;31738;50.188;8.524;2022-11-18T00:31:15;96947.53;;;10.60;100.00
46007;BME280;31738;50.188;8.524;2022-11-18T00:33:46;96945.34;;;10.62;100.00
46007;BME280;31738;50.188;8.524;2022-11-18T00:36:29;96934.94;;;10.60;100.00
46007;BME280;31738;50.188;8.524;2022-11-18T00:38:58;96941.84;;;10.61;100.00
46007;BME280;31738;50.188;8.524;2022-11-18T00:41:23;96941.53;;;10.63;100.00
46007;BME280;31738;50.188;8.524;2022-11-18T00:44:18;96941.53;;;10.63;100.00
46007;BME280;31738;50.188;8.524;2022-11-18T00:46:49;96942.50;;;10.67;100.00
46007;BME280;31738;50.188;8.524;2022-11-18T00:49:21;96935.53;;;10.66;100.00
46007;BME280;31738;50.188;8.524;2022-11-18T00:51:55;96941.06;;;10.69;100.00
46007;BME280;31738;50.188;8.524;2022-11-18T00:54:24;96940.25;;;10.69;100.00
46007;BME280;31738;50.188;8.524;2022-11-18T00:56:50;96944.66;;;10.73;100.00
46007;BME280;31738;50.188;8.524;2022-11-18T00:59:25;96944.22;;;10.71;100.00
46007;BME280;31738;50.188;8.524;2022-11-18T01:02:00;96942.63;;;10.70;100.00
46007;BME280;31738;50.188;8.524;2022-11-18T01:04:37;96946.91;;;10.71;100.00
46007;BME280;31738;50.188;8.524;2022-11-18T01:07:25;96945.00;;;10.72;100.00
46007;BME280;31738;50.188;8.524;2022-11-18T01:10:19;96948.00;;;10.70;100.00
46007;BME280;31738;50.188;8.524;2022-11-18T01:13:06;96951.78;;;10.69;100.00
46007;BME280;31738;50.188;8.524;2022-11-18T01:18:40;96958.72;;;10.70;100.00
46007;BME280;31738;50.188;8.524;2022-11-18T01:21:13;96954.31;;;10.74;100.00
46007;BME280;31738;50.188;8.524;2022-11-18T01:23:48;96962.03;;;10.76;100.00
46007;BME280;31738;50.188;8.524;2022-11-18T01:26:22;96957.44;;;10.76;100.00
46007;BME280;31738;50.188;8.524;2022-11-18T01:29:00;96962.34;;;10.74;100.00
46007;BME280;31738;50.188;8.524;2022-11-18T01:31:28;96962.81;;;10.76;100.00
46007;BME280;31738;50.188;8.524;2022-11-18T01:34:12;96965.03;;;10.74;100.00
46007;BME280;31738;50.188;8.524;2022-11-18T01:36:44;96958.56;;;10.75;100.00
46007;BME280;31738;50.188;8.524;2022-11-18T01:39:21;96960.44;;;10.75;100.00
46007;BME280;31738;50.188;8.524;2022-11-18T01:41:50;96970.41;;;10.74;100.00
46007;BME280;31738;50.188;8.524;2022-11-18T01:47:34;96977.66;;;10.65;100.00
46007;BME280;31738;50.188;8.524;2022-11-18T01:50:10;96976.06;;;10.64;100.00
46007;BME280;31738;50.188;8.524;2022-11-18T01:52:48;96979.38;;;10.61;100.00
46007;BME280;31738;50.188;8.524;2022-11-18T01:55:25;96983.50;;;10.59;100.00
46007;BME280;31738;50.188;8.524;2022-11-18T01:58:17;96983.97;;;10.52;100.00
46007;BME280;31738;50.188;8.524;2022-11-18T02:00:50;96984.28;;;10.51;100.00
46007;BME280;31738;50.188;8.524;2022-11-18T02:03:20;96981.75;;;10.54;100.00
46007;BME280;31738;50.188;8.524;2022-11-18T02:06:00;96979.41;;;10.53;100.00
46007;BME280;31738;50.188;8.524;2022-11-18T02:08:33;96976.41;;;10.54;100.00
46007;BME280;31738;50.188;8.524;2022-11-18T02:11:09;96974.03;;;10.53;100.00
46007;BME280;31738;50.188;8.524;2022-11-18T02:14:05;96979.41;;;10.53;100.00
46007;BME280;31738;50.188;8.524;2022-11-18T02:23:32;96982.41;;;10.51;100.00
46007;BME280;31738;50.188;8.524;2022-11-18T02:28:55;96981.75;;;10.54;100.00
46007;BME280;31738;50.188;8.524;2022-11-18T02:31:36;96986.00;;;10.55;100.00
46007;BME280;31738;50.188;8.524;2022-11-18T02:34:20;96983.31;;;10.55;100.00
46007;BME280;31738;50.188;8.524;2022-11-18T02:36:58;96986.50;;;10.57;100.00
46007;BME280;31738;50.188;8.524;2022-11-18T02:39:37;96988.84;;;10.59;100.00
46007;BME280;31738;50.188;8.524;2022-11-18T02:42:08;96993.59;;;10.62;100.00
46007;BME280;31738;50.188;8.524;2022-11-18T02:44:37;97001.31;;;10.63;100.00
46007;BME280;31738;50.188;8.524;2022-11-18T02:47:05;96991.38;;;10.64;100.00
46007;BME280;31738;50.188;8.524;2022-11-18T02:49:39;96996.75;;;10.64;100.00
46007;BME280;31738;50.188;8.524;2022-11-18T03:18:44;97000.66;;;10.49;100.00
46007;BME280;31738;50.188;8.524;2022-11-18T03:21:48;96996.88;;;10.50;100.00
46007;BME280;31738;50.188;8.524;2022-11-18T03:25:51;97002.09;;;10.47;100.00
46007;BME280;31738;50.188;8.524;2022-11-18T03:31:22;97009.06;;;10.56;100.00
46007;BME280;31738;50.188;8.524;2022-11-18T03:34:32;97017.84;;;10.57;100.00
46007;BME280;31738;50.188;8.524;2022-11-18T03:37:30;97013.28;;;10.57;100.00
46007;BME280;31738;50.188;8.524;2022-11-18T03:40:36;97010.31;;;10.59;100.00
46007;BME280;31738;50.188;8.524;2022-11-18T03:44:23;97021.16;;;10.54;100.00
46007;BME280;31738;50.188;8.524;2022-11-18T03:50:36;97024.78;;;10.49;100.00
46007;BME280;31738;50.188;8.524;2022-11-18T03:53:32;97027.97;;;10.51;100.00
46007;BME280;31738;50.188;8.524;2022-11-18T03:56:28;97031.56;;;10.55;100.00
46007;BME280;31738;50.188;8.524;2022-11-18T04:02:37;97037.56;;;10.52;100.00
46007;BME280;31738;50.188;8.524;2022-11-18T04:05:11;97036.31;;;10.58;100.00
46007;BME280;31738;50.188;8.524;2022-11-18T04:08:14;97039.00;;;10.58;100.00
46007;BME280;31738;50.188;8.524;2022-11-18T04:11:01;97045.63;;;10.61;100.00
46007;BME280;31738;50.188;8.524;2022-11-18T04:13:52;97048.63;;;10.59;100.00
46007;BME280;31738;50.188;8.524;2022-11-18T04:20:28;97054.63;;;10.56;100.00
46007;BME280;31738;50.188;8.524;2022-11-18T04:22:56;97062.34;;;10.58;100.00
46007;BME280;31738;50.188;8.524;2022-11-18T04:25:21;97053.34;;;10.62;100.00
46007;BME280;31738;50.188;8.524;2022-11-18T04:28:04;97052.56;;;10.62;100.00
46007;BME280;31738;50.188;8.524;2022-11-18T04:30:30;97059.66;;;10.66;100.00
46007;BME280;31738;50.188;8.524;2022-11-18T04:32:56;97057.47;;;10.68;100.00
46007;BME280;31738;50.188;8.524;2022-11-18T04:35:22;97064.41;;;10.69;100.00
46007;BME280;31738;50.188;8.524;2022-11-18T04:37:48;97060.59;;;10.70;100.00
46007;BME280;31738;50.188;8.524;2022-11-18T04:40:13;97066.75;;;10.71;100.00
46007;BME280;31738;50.188;8.524;2022-11-18T04:42:39;97061.41;;;10.71;100.00
46007;BME280;31738;50.188;8.524;2022-11-18T04:45:05;97062.19;;;10.71;100.00
46007;BME280;31738;50.188;8.524;2022-11-18T04:47:36;97070.69;;;10.73;100.00
46007;BME280;31738;50.188;8.524;2022-11-18T04:50:04;97072.28;;;10.74;100.00
46007;BME280;31738;50.188;8.524;2022-11-18T04:52:30;97073.06;;;10.75;100.00
46007;BME280;31738;50.188;8.524;2022-11-18T04:55:00;97081.41;;;10.73;100.00
46007;BME280;31738;50.188;8.524;2022-11-18T04:57:29;97077.66;;;10.74;100.00
46007;BME280;31738;50.188;8.524;2022-11-18T04:59:58;97079.84;;;10.72;100.00
46007;BME280;31738;50.188;8.524;2022-11-18T05:02:24;97085.84;;;10.69;100.00
46007;BME280;31738;50.188;8.524;2022-11-18T05:05:25;97086.00;;;10.64;100.00
46007;BME280;31738;50.188;8.524;2022-11-18T05:07:51;97083.31;;;10.64;100.00
46007;BME280;31738;50.188;8.524;2022-11-18T05:10:16;97090.25;;;10.65;100.00
46007;BME280;31738;50.188;8.524;2022-11-18T05:12:42;97094.81;;;10.65;100.00
46007;BME280;31738;50.188;8.524;2022-11-18T05:15:15;97088.66;;;10.64;100.00
46007;BME280;31738;50.188;8.524;2022-11-18T05:17:41;97094.34;;;10.63;100.00
46007;BME280;31738;50.188;8.524;2022-11-18T05:20:07;97087.41;;;10.62;100.00
46007;BME280;31738;50.188;8.524;2022-11-18T05:22:33;97093.25;;;10.64;100.00
46007;BME280;31738;50.188;8.524;2022-11-18T05:24:58;97095.94;;;10.64;100.00
46007;BME280;31738;50.188;8.524;2022-11-18T05:27:24;97095.47;;;10.62;100.00
46007;BME280;31738;50.188;8.524;2022-11-18T05:29:50;97100.81;;;10.62;100.00
46007;BME280;31738;50.188;8.524;2022-11-18T05:32:16;97096.25;;;10.62;100.00
46007;BME280;31738;50.188;8.524;2022-11-18T05:34:41;97100.03;;;10.61;100.00
46007;BME280;31738;50.188;8.524;2022-11-18T05:37:08;97102.69;;;10.61;100.00
46007;BME280;31738;50.188;8.524;2022-11-18T05:39:33;97115.34;;;10.61;100.00
46007;BME280;31738;50.188;8.524;2022-11-18T05:41:59;97118.31;;;10.59;100.00
46007;BME280;31738;50.188;8.524;2022-11-18T05:44:43;97117.34;;;10.55;100.00
46007;BME280;31738;50.188;8.524;2022-11-18T05:47:09;97114.69;;;10.55;100.00
46007;BME280;31738;50.188;8.524;2022-11-18T05:49:35;97116.88;;;10.53;100.00
46007;BME280;31738;50.188;8.524;2022-11-18T05:52:00;97124.91;;;10.53;100.00
46007;BME280;31738;50.188;8.524;2022-11-18T05:54:26;97130.75;;;10.55;100.00
46007;BME280;31738;50.188;8.524;2022-11-18T05:56:52;97138.81;;;10.55;100.00
46007;BME280;31738;50.188;8.524;2022-11-18T05:59:17;97138.81;;;10.55;100.00
46007;BME280;31738;50.188;8.524;2022-11-18T06:01:46;97142.09;;;10.52;100.00
46007;BME280;31738;50.188;8.524;2022-11-18T06:06:52;97144.78;;;10.52;100.00
46007;BME280;31738;50.188;8.524;2022-11-18T06:09:21;97151.72;;;10.53;100.00
46007;BME280;31738;50.188;8.524;2022-11-18T06:11:52;97152.34;;;10.50;100.00
46007;BME280;31738;50.188;8.524;2022-11-18T06:14:57;97163.88;;;10.51;100.00
46007;BME280;31738;50.188;8.524;2022-11-18T06:17:18;97169.03;;;10.47;100.00
46007;BME280;31738;50.188;8.524;2022-11-18T06:19:45;97168.59;;;10.45;100.00
46007;BME280;31738;50.188;8.524;2022-11-18T06:22:31;97169.66;;;10.44;100.00
46007;BME280;31738;50.188;8.524;2022-11-18T06:25:01;97173.47;;;10.43;100.00
46007;BME280;31738;50.188;8.524;2022-11-18T06:27:30;97179.31;;;10.45;100.00
46007;BME280;31738;50.188;8.524;2022-11-18T06:29:59;97187.66;;;10.44;100.00
46007;BME280;31738;50.188;8.524;2022-11-18T06:32:27;97191.09;;;10.44;100.00
46007;BME280;31738;50.188;8.524;2022-11-18T06:34:53;97189.53;;;10.43;100.00
46007;BME280;31738;50.188;8.524;2022-11-18T06:37:19;97190.34;;;10.44;100.00
46007;BME280;31738;50.188;8.524;2022-11-18T06:39:45;97192.72;;;10.45;100.00
46007;BME280;31738;50.188;8.524;2022-11-18T06:42:11;97195.38;;;10.45;100.00
46007;BME280;31738;50.188;8.524;2022-11-18T06:44:56;97200.25;;;10.43;100.00
46007;BME280;31738;50.188;8.524;2022-11-18T06:47:22;97207.19;;;10.44;100.00
46007;BME280;31738;50.188;8.524;2022-11-18T06:49:48;97208.78;;;10.45;100.00
46007;BME280;31738;50.188;8.524;2022-11-18T06:52:16;97207.69;;;10.46;100.00
46007;BME280;31738;50.188;8.524;2022-11-18T06:54:45;97221.56;;;10.48;100.00
46007;BME280;31738;50.188;8.524;2022-11-18T06:57:10;97224.25;;;10.48;100.00
46007;BME280;31738;50.188;8.524;2022-11-18T06:59:36;97225.63;;;10.46;100.00
46007;BME280;31738;50.188;8.524;2022-11-18T07:02:01;97235.59;;;10.45;100.00
46007;BME280;31738;50.188;8.524;2022-11-18T07:10:34;97243.44;;;10.42;100.00
46007;BME280;31738;50.188;8.524;2022-11-18T07:13:20;97238.41;;;10.40;100.00
46007;BME280;31738;50.188;8.524;2022-11-18T07:15:45;97247.25;;;10.41;100.00
46007;BME280;31738;50.188;8.524;2022-11-18T07:49:34;97289.75;;;10.33;100.00
46007;BME280;31738;50.188;8.524;2022-11-18T07:52:06;97294.81;;;10.35;100.00
46007;BME280;31738;50.188;8.524;2022-11-18T07:54:42;97299.53;;;10.38;100.00
46007;BME280;31738;50.188;8.524;2022-11-18T07:57:07;97306.66;;;10.43;100.00
46007;BME280;31738;50.188;8.524;2022-11-18T07:59:37;97309.03;;;10.44;100.00
46007;BME280;31738;50.188;8.524;2022-11-18T08:02:10;97300.69;;;10.46;100.00
46007;BME280;31738;50.188;8.524;2022-11-18T08:05:00;97309.03;;;10.44;100.00
46007;BME280;31738;50.188;8.524;2022-11-18T08:07:25;97313.78;;;10.47;100.00
46007;BME280;31738;50.188;8.524;2022-11-18T08:09:59;97315.09;;;10.50;100.00
46007;BME280;31738;50.188;8.524;2022-11-18T08:12:31;97315.53;;;10.52;100.00
46007;BME280;31738;50.188;8.524;2022-11-18T08:15:08;97317.63;;;10.55;100.00
46007;BME280;31738;50.188;8.524;2022-11-18T08:17:34;97317.63;;;10.55;100.00
46007;BME280;31738;50.188;8.524;2022-11-18T08:20:00;97314.16;;;10.54;100.00
46007;BME280;31738;50.188;8.524;2022-11-18T08:22:25;97314.97;;;10.55;100.00
46007;BME280;31738;50.188;8.524;2022-11-18T08:24:51;97321.09;;;10.55;100.00
46007;BME280;31738;50.188;8.524;2022-11-18T08:27:23;97329.63;;;10.57;100.00
46007;BME280;31738;50.188;8.524;2022-11-18T08:30:14;97336.56;;;10.58;100.00
46007;BME280;31738;50.188;8.524;2022-11-18T08:32:53;97337.53;;;10.62;100.00
46007;BME280;31738;50.188;8.524;2022-11-18T08:35:28;97347.16;;;10.63;100.00
46007;BME280;31738;50.188;8.524;2022-11-18T08:37:57;97343.88;;;10.66;100.00
46007;BME280;31738;50.188;8.524;2022-11-18T08:40:22;97350.81;;;10.67;100.00
46007;BME280;31738;50.188;8.524;2022-11-18T08:42:56;97341.19;;;10.66;100.00
46007;BME280;31738;50.188;8.524;2022-11-18T08:45:29;97346.25;;;10.68;100.00
46007;BME280;31738;50.188;8.524;2022-11-18T08:48:27;97352.03;;;10.61;100.00
46007;BME280;31738;50.188;8.524;2022-11-18T08:50:53;97353.03;;;10.65;100.00
46007;BME280;31738;50.188;8.524;2022-11-18T08:53:39;97353.97;;;10.69;100.00
46007;BME280;31738;50.188;8.524;2022-11-18T08:56:34;97363.13;;;10.68;100.00
46007;BME280;31738;50.188;8.524;2022-11-18T08:59:10;97359.84;;;10.71;100.00
46007;BME280;31738;50.188;8.524;2022-11-18T09:01:45;97366.16;;;10.75;100.00
46007;BME280;31738;50.188;8.524;2022-11-18T09:04:15;97364.72;;;10.78;100.00
46007;BME280;31738;50.188;8.524;2022-11-18T09:07:18;97365.53;;;10.78;100.00
46007;BME280;31738;50.188;8.524;2022-11-18T09:09:58;97370.59;;;10.80;100.00
46007;BME280;31738;50.188;8.524;2022-11-18T09:12:26;97376.63;;;10.85;100.00
46007;BME280;31738;50.188;8.524;2022-11-18T09:15:06;97380.28;;;10.89;100.00
46007;BME280;31738;50.188;8.524;2022-11-18T09:17:59;97375.88;;;10.93;100.00
46007;BME280;31738;50.188;8.524;2022-11-18T09:20:24;97373.38;;;10.97;100.00
46007;BME280;31738;50.188;8.524;2022-11-18T09:22:50;97383.97;;;11.02;100.00
46007;BME280;31738;50.188;8.524;2022-11-18T09:25:15;97381.44;;;11.05;100.00
46007;BME280;31738;50.188;8.524;2022-11-18T09:27:41;97382.91;;;11.11;100.00
46007;BME280;31738;50.188;8.524;2022-11-18T09:30:07;97381.66;;;11.17;100.00
46007;BME280;31738;50.188;8.524;2022-11-18T09:32:33;97381.81;;;11.21;100.00
46007;BME280;31738;50.188;8.524;2022-11-18T09:34:58;97400.28;;;11.22;100.00
46007;BME280;31738;50.188;8.524;2022-11-18T09:37:24;97391.31;;;11.27;100.00
46007;BME280;31738;50.188;8.524;2022-11-18T09:39:49;97401.59;;;11.33;100.00
46007;BME280;31738;50.188;8.524;2022-11-18T09:42:37;97398.00;;;11.38;100.00
46007;BME280;31738;50.188;8.524;2022-11-18T09:45:17;97403.53;;;11.41;100.00
46007;BME280;31738;50.188;8.524;2022-11-18T09:47:45;97399.75;;;11.42;100.00
46007;BME280;31738;50.188;8.524;2022-11-18T09:50:21;97404.97;;;11.47;100.00
46007;BME280;31738;50.188;8.524;2022-11-18T09:53:09;97401.66;;;11.50;100.00
46007;BME280;31738;50.188;8.524;2022-11-18T09:55:40;97410.97;;;11.53;100.00
46007;BME280;31738;50.188;8.524;2022-11-18T09:58:06;97405.47;;;11.58;100.00
46007;BME280;31738;50.188;8.524;2022-11-18T10:00:32;97410.53;;;11.59;100.00
46007;BME280;31738;50.188;8.524;2022-11-18T10:03:07;97406.19;;;11.63;100.00
46007;BME280;31738;50.188;8.524;2022-11-18T10:05:47;97409.31;;;11.65;100.00
46007;BME280;31738;50.188;8.524;2022-11-18T10:08:26;97405.56;;;11.66;100.00
46007;BME280;31738;50.188;8.524;2022-11-18T10:13:50;97413.59;;;11.66;99.90
46007;BME280;31738;50.188;8.524;2022-11-18T10:21:50;97426.41;;;11.69;100.00
46007;BME280;31738;50.188;8.524;2022-11-18T10:24:21;97424.97;;;11.72;99.97
46007;BME280;31738;50.188;8.524;2022-11-18T10:26:56;97428.16;;;11.74;99.89
46007;BME280;31738;50.188;8.524;2022-11-18T10:29:23;97430.53;;;11.75;99.91
46007;BME280;31738;50.188;8.524;2022-11-18T10:32:01;97441.72;;;11.77;99.47
46007;BME280;31738;50.188;8.524;2022-11-18T10:34:29;97439.66;;;11.74;99.57
46007;BME280;31738;50.188;8.524;2022-11-18T10:37:00;97445.22;;;11.78;99.31
46007;BME280;31738;50.188;8.524;2022-11-18T10:39:27;97448.41;;;11.80;99.41
46007;BME280;31738;50.188;8.524;2022-11-18T10:41:56;97446.34;;;11.85;99.07
46007;BME280;31738;50.188;8.524;2022-11-18T10:44:28;97454.88;;;11.87;98.94
46007;BME280;31738;50.188;8.524;2022-11-18T10:46:55;97454.25;;;11.90;98.78
46007;BME280;31738;50.188;8.524;2022-11-18T10:49:21;97466.13;;;11.89;98.55
46007;BME280;31738;50.188;8.524;2022-11-18T10:52:02;97465.31;;;11.89;98.04
46007;BME280;31738;50.188;8.524;2022-11-18T10:54:30;97469.72;;;11.85;97.97
46007;BME280;31738;50.188;8.524;2022-11-18T10:57:20;97470.03;;;11.83;98.06
46007;BME280;31738;50.188;8.524;2022-11-18T10:59:52;97475.25;;;11.80;98.12
46007;BME280;31738;50.188;8.524;2022-11-18T11:02:32;97469.56;;;11.81;98.14
46007;BME280;31738;50.188;8.524;2022-11-18T11:05:02;97466.88;;;11.81;98.02
46007;BME280;31738;50.188;8.524;2022-11-18T11:07:30;97474.00;;;11.86;97.98
46007;BME280;31738;50.188;8.524;2022-11-18T11:12:31;97475.47;;;12.00;97.96
46007;BME280;31738;50.188;8.524;2022-11-18T11:15:02;97476.13;;;12.06;97.50
46007;BME280;31738;50.188;8.524;2022-11-18T11:17:35;97479.91;;;12.14;97.41
46007;BME280;31738;50.188;8.524;2022-11-18T11:22:32;97483.41;;;12.23;96.63
46007;BME280;31738;50.188;8.524;2022-11-18T11:24:57;97478.34;;;12.21;96.16
46007;BME280;31738;50.188;8.524;2022-11-18T11:27:41;97495.41;;;12.17;96.05
46007;BME280;31738;50.188;8.524;2022-11-18T11:30:13;97503.13;;;12.09;95.74
46007;BME280;31738;50.188;8.524;2022-11-18T11:32:52;97501.06;;;12.06;96.03
46007;BME280;31738;50.188;8.524;2022-11-18T11:35:33;97503.31;;;12.04;95.75
46007;BME280;31738;50.188;8.524;2022-11-18T11:41:23;97503.94;;;12.01;95.71
46007;BME280;31738;50.188;8.524;2022-11-18T11:52:53;97514.69;;;12.01;95.16
46007;BME280;31738;50.188;8.524;2022-11-18T11:55:29;97516.56;;;12.09;94.50
46007;BME280;31738;50.188;8.524;2022-11-18T11:58:14;97533.69;;;12.14;93.59
46007;BME280;31738;50.188;8.524;2022-11-18T12:00:49;97522.94;;;12.14;93.96
46007;BME280;31738;50.188;8.524;2022-11-18T12:03:41;97534.44;;;12.14;93.85
46007;BME280;31738;50.188;8.524;2022-11-18T12:06:09;97526.69;;;12.13;94.01
46007;BME280;31738;50.188;8.524;2022-11-18T12:08:36;97526.06;;;12.16;93.85
46007;BME280;31738;50.188;8.524;2022-11-18T12:11:14;97543.00;;;12.16;93.61
46007;BME280;31738;50.188;8.524;2022-11-18T12:19:05;97541.59;;;12.19;93.37
46007;BME280;31738;50.188;8.524;2022-11-18T12:24:36;97551.72;;;12.22;93.16
46007;BME280;31738;50.188;8.524;2022-11-18T12:32:28;97545.09;;;12.28;93.34
46007;BME280;31738;50.188;8.524;2022-11-18T12:35:31;97549.69;;;12.27;92.52
46007;BME280;31738;50.188;8.524;2022-11-18T12:40:44;97554.19;;;12.01;93.21
46007;BME280;31738;50.188;8.524;2022-11-18T12:54:31;97550.25;;;12.07;93.36
46007;BME280;31738;50.188;8.524;2022-11-18T12:57:23;97550.75;;;12.18;92.76
46007;BME280;31738;50.188;8.524;2022-11-18T12:59:50;97555.50;;;12.21;92.56
46007;BME280;31738;50.188;8.524;2022-11-18T13:02:27;97554.88;;;12.24;92.63
46007;BME280;31738;50.188;8.524;2022-11-18T13:05:18;97558.69;;;12.23;92.73
46007;BME280;31738;50.188;8.524;2022-11-18T13:07:48;97557.88;;;12.22;92.65
46007;BME280;31738;50.188;8.524;2022-11-18T13:10:38;97557.13;;;12.22;92.91
46007;BME280;31738;50.188;8.524;2022-11-18T13:13:04;97554.25;;;12.27;93.02
46007;BME280;31738;50.188;8.524;2022-11-18T13:15:41;97558.38;;;12.33;92.69
46007;BME280;31738;50.188;8.524;2022-11-18T13:18:24;97558.72;;;12.40;92.56
46007;BME280;31738;50.188;8.524;2022-11-18T13:20:58;97559.53;;;12.49;92.85
46007;BME280;31738;50.188;8.524;2022-11-18T13:23:44;97557.78;;;12.53;92.93
46007;BME280;31738;50.188;8.524;2022-11-18T13:26:33;97574.41;;;12.55;92.22
46007;BME280;31738;50.188;8.524;2022-11-18T13:34:44;97581.13;;;12.27;91.57
46007;BME280;31738;50.188;8.524;2022-11-18T13:37:16;97577.50;;;12.23;91.42
46007;BME280;31738;50.188;8.524;2022-11-18T13:39:44;97581.63;;;12.20;91.71
46007;BME280;31738;50.188;8.524;2022-11-18T13:42:29;97590.00;;;12.19;91.84
46007;BME280;31738;50.188;8.524;2022-11-18T13:44:59;97579.25;;;12.19;91.86
46007;BME280;31738;50.188;8.524;2022-11-18T13:47:32;97581.13;;;12.18;91.58
46007;BME280;31738;50.188;8.524;2022-11-18T13:50:05;97577.41;;;11.97;91.92
46007;BME280;31738;50.188;8.524;2022-11-18T13:55:53;97584.03;;;11.91;91.96
46007;BME280;31738;50.188;8.524;2022-11-18T13:58:41;97581.66;;;11.89;91.29
46007;BME280;31738;50.188;8.524;2022-11-18T14:04:05;97593.63;;;11.83;91.05
46007;BME280;31738;50.188;8.524;2022-11-18T14:06:34;97595.03;;;11.81;90.80
46007;BME280;31738;50.188;8.524;2022-11-18T14:12:03;97591.81;;;11.70;91.00
46007;BME280;31738;50.188;8.524;2022-11-18T14:19:41;97607.59;;;11.63;90.70
46007;BME280;31738;50.188;8.524;2022-11-18T14:22:12;97605.47;;;11.60;90.81
46007;BME280;31738;50.188;8.524;2022-11-18T14:24:40;97610.69;;;11.57;90.98
46007;BME280;31738;50.188;8.524;2022-11-18T14:27:38;97610.00;;;11.51;90.73
46007;BME280;31738;50.188;8.524;2022-11-18T14:33:15;97610.69;;;11.35;91.46
46007;BME280;31738;50.188;8.524;2022-11-18T14:35:43;97617.47;;;11.32;91.86
46007;BME280;31738;50.188;8.524;2022-11-18T14:38:55;97615.38;;;11.29;91.53
46007;BME280;31738;50.188;8.524;2022-11-18T14:41:07;97625.75;;;11.22;91.72
46007;BME280;31738;50.188;8.524;2022-11-18T14:43:34;97614.03;;;11.18;91.71
46007;BME280;31738;50.188;8.524;2022-11-18T14:46:02;97621.59;;;11.16;91.92
46007;BME280;31738;50.188;8.524;2022-11-18T14:48:29;97624.41;;;11.11;92.10
46007;BME280;31738;50.188;8.524;2022-11-18T14:50:56;97619.66;;;11.08;92.06
46007;BME280;31738;50.188;8.524;2022-11-18T14:53:22;97625.59;;;11.05;91.82
46007;BME280;31738;50.188;8.524;2022-11-18T14:55:50;97617.09;;;11.03;92.22
46007;BME280;31738;50.188;8.524;2022-11-18T14:58:16;97623.81;;;11.01;92.03
46007;BME280;31738;50.188;8.524;2022-11-18T15:00:43;97634.38;;;10.97;92.03
46007;BME280;31738;50.188;8.524;2022-11-18T15:03:09;97629.13;;;10.92;91.81
46007;BME280;31738;50.188;8.524;2022-11-18T15:05:35;97627.84;;;10.90;92.19
46007;BME280;31738;50.188;8.524;2022-11-18T15:08:01;97630.66;;;10.85;92.20
46007;BME280;31738;50.188;8.524;2022-11-18T15:10:26;97630.75;;;10.80;92.05
46007;BME280;31738;50.188;8.524;2022-11-18T15:12:52;97627.84;;;10.76;92.36
46007;BME280;31738;50.188;8.524;2022-11-18T15:15:17;97630.69;;;10.71;92.35
46007;BME280;31738;50.188;8.524;2022-11-18T15:17:44;97629.97;;;10.66;92.24
46007;BME280;31738;50.188;8.524;2022-11-18T15:20:12;97627.41;;;10.61;92.34
46007;BME280;31738;50.188;8.524;2022-11-18T15:22:39;97635.25;;;10.57;92.50
46007;BME280;31738;50.188;8.524;2022-11-18T15:25:05;97632.69;;;10.52;92.36
46007;BME280;31738;50.188;8.524;2022-11-18T15:27:31;97641.31;;;10.49;92.47
46007;BME280;31738;50.188;8.524;2022-11-18T15:29:57;97639.84;;;10.43;92.44
46007;BME280;31738;50.188;8.524;2022-11-18T15:32:22;97653.84;;;10.40;92.48
46007;BME280;31738;50.188;8.524;2022-11-18T15:34:48;97644.81;;;10.36;92.88
46007;BME280;31738;50.188;8.524;2022-11-18T15:37:14;97647.59;;;10.31;92.40
46007;BME280;31738;50.188;8.524;2022-11-18T15:39:40;97635.38;;;10.25;92.69
46007;BME280;31738;50.188;8.524;2022-11-18T15:42:05;97651.03;;;10.18;92.74
46007;BME280;31738;50.188;8.524;2022-11-18T15:44:31;97647.97;;;10.11;92.82
46007;BME280;31738;50.188;8.524;2022-11-18T15:46:56;97650.69;;;10.06;92.74
46007;BME280;31738;50.188;8.524;2022-11-18T15:49:24;97647.34;;;10.00;92.85
46007;BME280;31738;50.188;8.524;2022-11-18T15:51:49;97655.97;;;9.97;93.01
46007;BME280;31738;50.188;8.524;2022-11-18T15:54:15;97653.06;;;9.94;92.97
46007;BME280;31738;50.188;8.524;2022-11-18T15:56:40;97654.25;;;9.88;92.46
46007;BME280;31738;50.188;8.524;2022-11-18T15:59:10;97648.97;;;9.83;93.12
46007;BME280;31738;50.188;8.524;2022-11-18T16:01:40;97661.38;;;9.79;92.65
46007;BME280;31738;50.188;8.524;2022-11-18T16:04:07;97665.75;;;9.75;92.75
46007;BME280;31738;50.188;8.524;2022-11-18T16:06:34;97665.53;;;9.71;93.10
46007;BME280;31738;50.188;8.524;2022-11-18T16:08:59;97661.53;;;9.69;93.26
46007;BME280;31738;50.188;8.524;2022-11-18T16:11:27;97669.09;;;9.67;92.87
46007;BME280;31738;50.188;8.524;2022-11-18T16:14:13;97660.63;;;9.60;93.16
46007;BME280;31738;50.188;8.524;2022-11-18T16:16:43;97666.28;;;9.58;93.06
46007;BME280;31738;50.188;8.524;2022-11-18T16:19:13;97666.84;;;9.55;92.63
46007;BME280;31738;50.188;8.524;2022-11-18T16:21:42;97669.81;;;9.54;92.91
46007;BME280;31738;50.188;8.524;2022-11-18T16:24:10;97675.00;;;9.50;93.14